Time;durP1;ratioP1;P1;durP2;ratioP2;P2;SDS_P1;SDS_P2;PMS_P1;PMS_P2;Temp;Humidity;BMP_temperature;BMP_pressure;BME280_temperature;BME280_humidity;BME280_pressure;Samples;Min_cycle;Max_cycle;Signal;HPM_P1;HPM_P2
2022/03/14 00:01:14;;;;;;;11.02;9.30;;;15.30;49.80;;;;;;5073632;28;20384;-74
2022/03/14 00:03:58;;;;;;;13.48;9.80;;;15.30;50.10;;;;;;5032326;28;20384;-74
2022/03/14 00:06:23;;;;;;;;;;;15.30;50.20;;;;;;5034748;28;20056;-74
2022/03/14 00:08:52;;;;;;;10.98;8.77;;;15.30;50.10;;;;;;5017626;28;19921;-75
2022/03/14 00:11:18;;;;;;;10.68;8.50;;;15.20;50.60;;;;;;5038111;28;20122;-73
2022/03/14 00:13:46;;;;;;;10.68;8.25;;;15.30;50.80;;;;;;5020473;28;20125;-73
2022/03/14 00:16:16;;;;;;;10.43;9.02;;;15.20;51.00;;;;;;5020691;28;20053;-73
2022/03/14 00:18:43;;;;;;;9.23;7.93;;;15.20;51.10;;;;;;5060247;28;20040;-75
2022/03/14 00:21:09;;;;;;;11.25;8.98;;;15.20;51.30;;;;;;5077990;28;20078;-75
2022/03/14 00:23:34;;;;;;;12.45;8.70;;;15.20;51.50;;;;;;5060262;28;20138;-74
2022/03/14 00:26:00;;;;;;;10.48;7.57;;;15.20;51.70;;;;;;5059930;28;20509;-74
2022/03/14 00:28:26;;;;;;;9.20;7.47;;;15.20;51.80;;;;;;5077684;28;20080;-74
2022/03/14 00:30:51;;;;;;;9.85;7.20;;;15.20;51.90;;;;;;5059965;28;20044;-74
2022/03/14 00:33:17;;;;;;;8.63;7.57;;;15.20;52.10;;;;;;5060920;28;20052;-72
2022/03/14 00:35:43;;;;;;;8.18;7.05;;;15.30;52.30;;;;;;5057438;28;20059;-74
2022/03/14 00:38:08;;;;;;;8.18;6.72;;;15.20;52.40;;;;;;5057651;28;20429;-73
2022/03/14 00:40:34;;;;;;;7.90;6.28;;;15.20;52.60;;;;;;5064280;28;20517;-73
2022/03/14 00:43:03;;;;;;;8.05;6.50;;;15.20;52.70;;;;;;5059536;28;20139;-73
2022/03/14 00:45:31;;;;;;;8.88;5.70;;;15.20;52.90;;;;;;5077770;28;20109;-72
2022/03/14 00:47:57;;;;;;;8.02;6.18;;;15.20;53.00;;;;;;5077084;28;20448;-74
2022/03/14 00:50:22;;;;;;;6.90;5.90;;;15.20;53.20;;;;;;5060251;28;20059;-74
2022/03/14 00:52:48;;;;;;;5.75;5.03;;;15.20;53.30;;;;;;5077430;28;20067;-73
2022/03/14 00:55:14;;;;;;;6.90;5.60;;;15.20;53.30;;;;;;5059747;28;20055;-73
2022/03/14 00:57:39;;;;;;;8.27;5.10;;;15.20;53.50;;;;;;5077321;28;20340;-75
2022/03/14 01:00:06;;;;;;;6.68;4.80;;;15.20;53.50;;;;;;5059593;28;20131;-73
2022/03/14 01:02:32;;;;;;;5.47;4.30;;;15.20;53.60;;;;;;5063344;28;20495;-75
2022/03/14 01:04:57;;;;;;;7.03;4.90;;;15.20;53.70;;;;;;5057112;28;20076;-74
2022/03/14 01:07:23;;;;;;;5.65;4.20;;;15.20;53.80;;;;;;5072746;28;20045;-74
2022/03/14 01:09:49;;;;;;;6.32;4.70;;;15.20;53.80;;;;;;5039543;28;20041;-73
2022/03/14 01:12:15;;;;;;;5.90;4.50;;;15.20;53.90;;;;;;5039090;28;20045;-73
2022/03/14 01:14:43;;;;;;;5.53;4.00;;;15.20;53.90;;;;;;5039432;28;20049;-74
2022/03/14 01:17:10;;;;;;;4.95;3.97;;;15.30;54.00;;;;;;5040028;28;20067;-74
2022/03/14 01:19:38;;;;;;;5.45;3.97;;;15.20;54.00;;;;;;5056699;28;20128;-72
2022/03/14 01:22:10;;;;;;;5.05;3.50;;;15.20;54.10;;;;;;5055783;28;20041;-74
2022/03/14 01:24:38;;;;;;;6.85;4.32;;;15.20;54.20;;;;;;5057203;28;20057;-75
2022/03/14 01:27:05;;;;;;;4.25;3.40;;;15.20;54.20;;;;;;5039272;28;20053;-72
2022/03/14 01:29:31;;;;;;;4.13;3.10;;;15.20;54.30;;;;;;5056727;28;20048;-75
2022/03/14 01:31:58;;;;;;;3.63;3.08;;;15.20;54.40;;;;;;5039579;28;20086;-72
2022/03/14 01:34:24;;;;;;;3.50;2.75;;;15.20;54.40;;;;;;5056884;28;20083;-75
2022/03/14 01:36:50;;;;;;;4.63;3.10;;;15.30;54.50;;;;;;5038871;28;20045;-74
2022/03/14 01:39:15;;;;;;;4.13;3.08;;;15.30;54.50;;;;;;5055975;28;20055;-74
2022/03/14 01:41:41;;;;;;;3.58;2.80;;;15.30;54.50;;;;;;5056614;28;20049;-73
2022/03/14 01:44:07;;;;;;;4.05;3.30;;;15.30;54.60;;;;;;5038599;28;20057;-74
2022/03/14 01:46:33;;;;;;;3.45;2.92;;;15.30;54.60;;;;;;5038367;28;20056;-74
2022/03/14 01:49:00;;;;;;;3.47;2.63;;;15.20;54.60;;;;;;5056102;28;20051;-72
2022/03/14 01:51:25;;;;;;;3.33;2.75;;;15.20;54.60;;;;;;5056089;28;20396;-75
2022/03/14 01:53:52;;;;;;;3.63;3.17;;;15.30;54.70;;;;;;5056681;28;20056;-73
2022/03/14 01:56:18;;;;;;;3.53;2.60;;;15.30;55.40;;;;;;5055845;28;20407;-73
2022/03/14 01:58:46;;;;;;;3.65;2.65;;;15.30;54.80;;;;;;5057627;28;20052;-72
2022/03/14 02:01:13;;;;;;;3.70;2.60;;;15.30;54.90;;;;;;5057359;28;20076;-72
2022/03/14 02:03:38;;;;;;;3.42;2.80;;;15.30;54.90;;;;;;5051811;28;20053;-73
2022/03/14 02:06:05;;;;;;;3.35;2.42;;;15.30;55.00;;;;;;5038491;28;20041;-75
2022/03/14 02:08:30;;;;;;;3.72;2.67;;;15.30;55.00;;;;;;5055590;28;20052;-75
2022/03/14 02:10:56;;;;;;;2.85;2.30;;;15.30;55.10;;;;;;5055580;28;20128;-73
2022/03/14 02:13:23;;;;;;;3.17;2.55;;;15.30;55.10;;;;;;5038542;28;20080;-74
2022/03/14 02:15:48;;;;;;;3.45;2.75;;;15.30;55.10;;;;;;5055373;28;20492;-73
2022/03/14 02:18:14;;;;;;;3.55;2.88;;;15.20;55.10;;;;;;5055695;28;20041;-74
2022/03/14 02:20:40;;;;;;;3.05;2.33;;;15.20;55.20;;;;;;5038244;28;20040;-72
2022/03/14 02:23:06;;;;;;;3.20;2.60;;;15.30;55.30;;;;;;5055400;28;20067;-73
2022/03/14 02:25:35;;;;;;;3.83;2.70;;;15.20;55.30;;;;;;5055744;28;20049;-73
2022/03/14 02:28:01;;;;;;;3.25;2.55;;;15.20;55.30;;;;;;5038235;28;20071;-74
2022/03/14 02:30:27;;;;;;;2.85;2.53;;;15.20;55.40;;;;;;5055371;28;20541;-73
2022/03/14 02:32:53;;;;;;;3.72;2.85;;;15.20;55.40;;;;;;5055005;28;20063;-75
2022/03/14 02:35:19;;;;;;;4.40;3.28;;;15.20;55.40;;;;;;5075415;28;20048;-73
2022/03/14 02:37:45;;;;;;;3.83;3.05;;;15.20;55.50;;;;;;5057537;28;20451;-74
2022/03/14 02:40:11;;;;;;;3.15;2.47;;;15.20;55.50;;;;;;5055672;28;20174;-75
2022/03/14 02:42:37;;;;;;;3.33;2.85;;;15.20;55.50;;;;;;5075351;28;20105;-75
2022/03/14 02:45:04;;;;;;;3.33;2.85;;;15.20;55.60;;;;;;5075487;28;20067;-74
2022/03/14 02:47:30;;;;;;;3.85;2.67;;;15.20;55.60;;;;;;5054966;28;20063;-74
2022/03/14 02:49:56;;;;;;;4.20;2.65;;;15.20;55.60;;;;;;5057798;28;20040;-75
2022/03/14 02:52:22;;;;;;;3.10;2.80;;;15.20;55.60;;;;;;5074463;28;20063;-75
2022/03/14 02:54:48;;;;;;;4.35;2.83;;;15.20;55.80;;;;;;5075412;28;20056;-74
2022/03/14 02:57:13;;;;;;;3.88;2.70;;;15.20;55.80;;;;;;5057601;28;20473;-75
2022/03/14 02:59:39;;;;;;;4.93;2.95;;;15.20;55.80;;;;;;5075242;28;20045;-74
2022/03/14 03:02:05;;;;;;;5.20;3.90;;;15.10;55.90;;;;;;5029572;28;20049;-73
2022/03/14 03:04:32;;;;;;;4.93;3.88;;;15.10;55.90;;;;;;5037445;28;20048;-76
2022/03/14 03:06:58;;;;;;;6.80;4.30;;;15.10;55.80;;;;;;5055252;28;20057;-75
2022/03/14 03:09:26;;;;;;;7.40;5.07;;;15.10;55.90;;;;;;5054785;28;20048;-75
2022/03/14 03:11:53;;;;;;;5.72;4.72;;;15.10;55.90;;;;;;5054891;28;20056;-73
2022/03/14 03:14:19;;;;;;;5.22;4.40;;;15.10;55.90;;;;;;5038245;28;20064;-73
2022/03/14 03:16:45;;;;;;;7.30;5.70;;;15.10;55.90;;;;;;5055127;28;20055;-74
2022/03/14 03:19:11;;;;;;;6.47;5.45;;;15.00;55.90;;;;;;5054962;28;20445;-72
2022/03/14 03:21:39;;;;;;;6.78;5.63;;;15.10;55.90;;;;;;5054562;28;20087;-74
2022/03/14 03:24:09;;;;;;;5.85;5.25;;;15.00;55.90;;;;;;5037157;28;20056;-74
2022/03/14 03:26:38;;;;;;;6.65;5.10;;;15.00;55.90;;;;;;5055062;28;20041;-73
2022/03/14 03:29:09;;;;;;;7.07;5.85;;;15.00;56.00;;;;;;5053710;28;20064;-73
2022/03/14 03:31:35;;;;;;;8.00;6.30;;;15.00;56.00;;;;;;5052555;28;20080;-74
2022/03/14 03:34:00;;;;;;;9.00;6.13;;;15.00;56.00;;;;;;5037419;28;20092;-75
2022/03/14 03:36:26;;;;;;;6.28;5.50;;;15.00;56.00;;;;;;5037272;28;20150;-73
2022/03/14 03:38:52;;;;;;;8.70;6.25;;;15.00;56.00;;;;;;5054843;28;20051;-74
2022/03/14 03:41:18;;;;;;;6.80;5.63;;;15.00;56.00;;;;;;5036908;28;20063;-75
2022/03/14 03:43:44;;;;;;;8.85;6.55;;;15.10;56.00;;;;;;5037300;28;20372;-75
2022/03/14 03:46:09;;;;;;;7.68;5.97;;;15.10;56.00;;;;;;5057805;28;20041;-73
2022/03/14 03:48:35;;;;;;;7.93;6.57;;;15.10;56.00;;;;;;5041684;28;20049;-74
2022/03/14 03:51:01;;;;;;;7.35;6.55;;;15.10;56.00;;;;;;5040824;28;20056;-72
2022/03/14 03:53:27;;;;;;;6.93;5.82;;;15.00;55.90;;;;;;5024680;28;20049;-72
2022/03/14 03:55:52;;;;;;;8.55;6.20;;;15.10;56.00;;;;;;5058369;28;20376;-74
2022/03/14 03:58:18;;;;;;;7.40;6.35;;;15.10;56.00;;;;;;5058540;28;20045;-73
2022/03/14 04:00:44;;;;;;;8.80;5.88;;;15.10;56.00;;;;;;5057851;28;20045;-74
2022/03/14 04:03:10;;;;;;;7.85;6.15;;;15.10;56.00;;;;;;5046077;28;20439;-73
2022/03/14 04:05:39;;;;;;;6.82;5.93;;;15.10;56.10;;;;;;5077652;28;20123;-74
2022/03/14 04:08:10;;;;;;;7.22;5.55;;;15.10;56.10;;;;;;5078107;28;20113;-73
2022/03/14 04:10:38;;;;;;;7.40;5.68;;;15.10;56.10;;;;;;5078327;28;20387;-74
2022/03/14 04:13:06;;;;;;;8.50;5.45;;;15.10;56.10;;;;;;5078188;28;20048;-74
2022/03/14 04:15:42;;;;;;;6.75;5.55;;;15.10;56.10;;;;;;5078090;28;20422;-72
2022/03/14 04:18:09;;;;;;;6.50;5.50;;;15.00;56.10;;;;;;5077325;28;20506;-74
2022/03/14 04:20:36;;;;;;;6.22;4.68;;;15.00;56.20;;;;;;5059161;28;20067;-73
2022/03/14 04:23:02;;;;;;;5.55;4.63;;;15.00;56.20;;;;;;5077775;28;20049;-73
2022/03/14 04:25:28;;;;;;;5.57;4.80;;;15.10;56.90;;;;;;5043636;28;20052;-72
2022/03/14 04:27:54;;;;;;;6.88;5.13;;;15.00;56.30;;;;;;5078456;28;20432;-74
2022/03/14 04:30:20;;;;;;;5.82;4.75;;;15.00;56.30;;;;;;5077404;28;20064;-72
2022/03/14 04:32:46;;;;;;;6.72;4.70;;;15.00;56.30;;;;;;5077945;28;20063;-74
2022/03/14 04:35:12;;;;;;;5.43;4.85;;;15.00;56.40;;;;;;5077553;28;20032;-74
2022/03/14 04:37:38;;;;;;;5.65;4.55;;;15.00;56.40;;;;;;5077459;28;20064;-73
2022/03/14 04:40:04;;;;;;;4.93;4.03;;;15.00;56.40;;;;;;5077463;28;20466;-71
2022/03/14 04:42:29;;;;;;;5.28;4.47;;;15.00;56.50;;;;;;5060449;28;20131;-73
2022/03/14 04:44:55;;;;;;;5.03;4.22;;;15.00;56.50;;;;;;5060016;28;20128;-72
2022/03/14 04:47:21;;;;;;;4.82;3.97;;;15.00;56.60;;;;;;5077244;28;20060;-74
2022/03/14 04:49:46;;;;;;;5.07;3.75;;;15.00;56.60;;;;;;5077704;28;20049;-72
2022/03/14 04:52:12;;;;;;;5.65;3.78;;;15.00;56.70;;;;;;5060178;28;20474;-73
2022/03/14 04:54:39;;;;;;;4.70;4.10;;;15.00;56.70;;;;;;5059331;28;20074;-74
2022/03/14 04:57:05;;;;;;;5.00;3.38;;;15.00;56.70;;;;;;5076903;28;20406;-75
2022/03/14 04:59:31;;;;;;;4.03;3.38;;;15.00;56.70;;;;;;5077310;28;20052;-73
2022/03/14 05:01:56;;;;;;;4.22;3.47;;;15.00;56.70;;;;;;5055366;28;20059;-73
2022/03/14 05:04:22;;;;;;;3.97;3.50;;;15.00;56.70;;;;;;5056477;28;20468;-72
2022/03/14 05:06:48;;;;;;;4.78;3.70;;;15.00;56.80;;;;;;5057118;28;20416;-74
2022/03/14 05:09:14;;;;;;;3.33;3.00;;;15.00;56.80;;;;;;5056395;28;20053;-73
2022/03/14 05:11:40;;;;;;;3.78;2.95;;;14.90;56.80;;;;;;5056891;28;20052;-72
2022/03/14 05:14:10;;;;;;;3.70;3.03;;;14.90;56.80;;;;;;5057523;28;20091;-73
2022/03/14 05:16:36;;;;;;;3.30;2.78;;;15.00;56.90;;;;;;5057424;28;20122;-74
2022/03/14 05:19:02;;;;;;;3.28;2.30;;;14.90;56.90;;;;;;5056635;28;20128;-74
2022/03/14 05:21:27;;;;;;;3.90;2.80;;;14.90;56.90;;;;;;5056799;28;20523;-75
2022/03/14 05:23:53;;;;;;;2.95;2.47;;;14.90;57.00;;;;;;5057484;28;20060;-73
2022/03/14 05:26:19;;;;;;;3.35;2.63;;;14.90;57.10;;;;;;5038962;28;20049;-73
2022/03/14 05:28:44;;;;;;;3.60;2.88;;;14.90;57.10;;;;;;5056573;28;20429;-72
2022/03/14 05:31:10;;;;;;;3.78;2.65;;;14.90;57.20;;;;;;5038450;28;20041;-72
2022/03/14 05:33:36;;;;;;;3.42;2.38;;;14.90;57.20;;;;;;5039732;28;20090;-73
2022/03/14 05:36:02;;;;;;;2.67;2.17;;;14.90;57.30;;;;;;5039272;28;20049;-74
2022/03/14 05:38:28;;;;;;;3.65;2.20;;;14.80;57.20;;;;;;5056046;28;20053;-72
2022/03/14 05:40:55;;;;;;;2.95;1.73;;;14.80;57.30;;;;;;5056240;28;20135;-74
2022/03/14 05:43:21;;;;;;;2.60;1.98;;;14.80;57.30;;;;;;5038669;28;20079;-75
2022/03/14 05:45:47;;;;;;;3.00;2.42;;;14.80;57.30;;;;;;5038848;28;20125;-77
2022/03/14 05:48:13;;;;;;;6.15;1.88;;;14.80;57.40;;;;;;5038888;28;20045;-74
2022/03/14 05:50:39;;;;;;;4.18;1.77;;;14.90;57.40;;;;;;5074124;28;20045;-76
2022/03/14 05:53:04;;;;;;;2.65;2.00;;;14.90;57.20;;;;;;5053297;28;20397;-75
2022/03/14 05:55:30;;;;;;;4.43;2.20;;;14.90;57.00;;;;;;5049557;28;20055;-75
2022/03/14 05:57:56;;;;;;;3.15;1.90;;;14.90;56.90;;;;;;5058550;28;20070;-74
2022/03/14 06:00:25;;;;;;;3.22;1.88;;;14.90;56.90;;;;;;5058395;28;20076;-76
2022/03/14 06:02:52;;;;;;;4.38;2.10;;;14.90;57.10;;;;;;5057875;28;20048;-73
2022/03/14 06:05:20;;;;;;;4.03;1.85;;;14.90;57.00;;;;;;5075912;28;20040;-74
2022/03/14 06:07:46;;;;;;;2.75;2.00;;;14.90;57.00;;;;;;5063322;28;20036;-73
2022/03/14 06:10:13;;;;;;;2.17;1.58;;;14.90;57.10;;;;;;5071616;28;20118;-75
2022/03/14 06:12:39;;;;;;;2.25;1.73;;;14.90;57.20;;;;;;5056021;28;20063;-70
2022/03/14 06:15:09;;;;;;;3.10;1.50;;;14.90;57.80;;;;;;5055476;28;20049;-74
2022/03/14 06:17:35;;;;;;;2.70;1.67;;;14.90;57.60;;;;;;5055472;28;20102;-71
2022/03/14 06:20:02;;;;;;;2.58;1.50;;;15.00;57.20;;;;;;5038152;28;20084;-74
2022/03/14 06:22:27;;;;;;;2.30;1.20;;;15.20;57.10;;;;;;5038070;28;20048;-72
2022/03/14 06:24:53;;;;;;;2.88;1.33;;;15.50;57.00;;;;;;5037893;28;20111;-74
2022/03/14 06:27:21;;;;;;;2.17;1.02;;;15.70;57.10;;;;;;5038688;28;20059;-74
2022/03/14 06:29:46;;;;;;;2.63;1.40;;;15.90;56.90;;;;;;5038479;28;20452;-71
2022/03/14 06:32:13;;;;;;;3.58;1.25;;;16.00;56.60;;;;;;5037736;28;20103;-72
2022/03/14 06:34:39;;;;;;;2.42;1.25;;;16.10;56.60;;;;;;5066533;28;20195;-72
2022/03/14 06:37:07;;;;;;;7.22;1.50;;;16.20;57.30;;;;;;5075535;28;20127;-74
2022/03/14 06:39:40;;;;;;;9.48;1.60;;;16.20;57.30;;;;;;5070473;28;20102;-72
2022/03/14 06:42:09;;;;;;;3.67;1.02;;;16.40;57.60;;;;;;5093324;28;20113;-73
2022/03/14 06:44:39;;;;;;;7.22;1.40;;;16.30;57.90;;;;;;5052615;28;20122;-73
2022/03/14 06:47:08;;;;;;;4.85;1.10;;;16.30;58.30;;;;;;5055353;28;20487;-72
2022/03/14 06:49:36;;;;;;;3.03;1.08;;;16.30;58.60;;;;;;5054765;28;20041;-73
2022/03/14 06:52:02;;;;;;;4.70;1.40;;;16.40;58.70;;;;;;5072993;28;20068;-74
2022/03/14 06:54:28;;;;;;;4.20;1.10;;;16.40;58.80;;;;;;5054819;28;20044;-74
2022/03/14 06:56:54;;;;;;;7.53;1.58;;;16.40;59.00;;;;;;5051943;28;20129;-74
2022/03/14 06:59:19;;;;;;;3.17;1.05;;;16.40;59.00;;;;;;5054790;28;20045;-76
2022/03/14 07:01:45;;;;;;;4.28;1.05;;;16.30;59.20;;;;;;5054979;28;20037;-75
2022/03/14 07:04:11;;;;;;;4.93;1.42;;;16.40;59.50;;;;;;5037474;28;20087;-75
2022/03/14 07:06:37;;;;;;;11.07;1.50;;;16.40;59.60;;;;;;5054057;28;20049;-77
2022/03/14 07:09:03;;;;;;;6.72;2.00;;;16.50;59.60;;;;;;5051452;28;20057;-77
2022/03/14 07:11:28;;;;;;;5.63;1.27;;;16.60;59.40;;;;;;5037184;28;20106;-74
2022/03/14 07:13:54;;;;;;;7.40;1.65;;;16.60;59.10;;;;;;5054862;28;20041;-73
2022/03/14 07:16:20;;;;;;;13.75;1.60;;;16.70;58.70;;;;;;5054790;28;20056;-74
2022/03/14 07:18:46;;;;;;;6.38;1.67;;;16.80;58.40;;;;;;5054823;28;20049;-74
2022/03/14 07:21:12;;;;;;;7.13;1.33;;;16.80;58.10;;;;;;5060679;28;20058;-75
2022/03/14 07:23:38;;;;;;;6.80;1.42;;;16.80;58.00;;;;;;5078548;28;20049;-74
2022/03/14 07:26:03;;;;;;;5.07;1.48;;;16.80;57.90;;;;;;5061209;28;20067;-76
2022/03/14 07:28:29;;;;;;;4.63;1.50;;;16.70;57.80;;;;;;5078860;28;20059;-74
2022/03/14 07:30:55;;;;;;;3.20;1.33;;;16.70;57.70;;;;;;5079009;28;20052;-74
2022/03/14 07:33:21;;;;;;;8.27;1.50;;;16.70;57.60;;;;;;5061301;28;20048;-74
2022/03/14 07:35:46;;;;;;;4.10;1.60;;;16.60;57.60;;;;;;5078888;28;20320;-76
2022/03/14 07:38:12;;;;;;;2.70;1.38;;;16.60;57.60;;;;;;5078424;28;20041;-76
2022/03/14 07:40:38;;;;;;;3.25;1.40;;;16.60;57.60;;;;;;5071036;28;20048;-75
2022/03/14 07:43:04;;;;;;;5.13;1.83;;;16.60;57.60;;;;;;5071587;28;20122;-75
2022/03/14 07:45:29;;;;;;;5.85;1.80;;;16.50;57.50;;;;;;5077638;28;20091;-76
2022/03/14 07:47:57;;;;;;;2.97;1.50;;;16.50;57.70;;;;;;5078036;28;20044;-75
2022/03/14 07:50:24;;;;;;;4.13;1.52;;;16.50;58.00;;;;;;5077847;28;20423;-74
2022/03/14 07:52:50;;;;;;;5.63;1.55;;;16.50;58.20;;;;;;5084606;28;20048;-74
2022/03/14 07:55:16;;;;;;;3.22;1.23;;;16.50;58.30;;;;;;5078175;28;20542;-75
2022/03/14 07:57:43;;;;;;;3.53;1.35;;;16.50;58.40;;;;;;5078182;28;20060;-74
2022/03/14 08:00:18;;;;;;;2.55;1.73;;;16.50;58.40;;;;;;5060844;28;20075;-73
2022/03/14 08:02:45;;;;;;;3.80;1.50;;;16.50;58.60;;;;;;5065134;28;20037;-76
2022/03/14 08:05:23;;;;;;;2.70;1.20;;;16.50;58.50;;;;;;5071678;28;20048;-75
2022/03/14 08:07:50;;;;;;;2.45;1.77;;;16.50;58.70;;;;;;5077906;28;20113;-76
2022/03/14 08:10:17;;;;;;;3.70;1.30;;;16.50;58.70;;;;;;5075667;28;20041;-74
2022/03/14 08:12:49;;;;;;;2.85;1.40;;;16.50;58.80;;;;;;5077967;28;20119;-75
2022/03/14 08:15:22;;;;;;;2.97;1.67;;;16.40;58.80;;;;;;5078562;28;20094;-75
2022/03/14 08:17:49;;;;;;;2.80;1.55;;;16.40;58.90;;;;;;5077711;28;20052;-73
2022/03/14 08:20:16;;;;;;;3.53;1.42;;;16.40;58.90;;;;;;5077587;28;20359;-75
2022/03/14 08:22:42;;;;;;;3.30;1.45;;;16.40;59.00;;;;;;5077595;28;20071;-75
2022/03/14 08:25:09;;;;;;;2.33;1.35;;;16.30;59.20;;;;;;5076279;28;20056;-77
2022/03/14 08:27:35;;;;;;;3.40;2.38;;;16.30;59.30;;;;;;5057561;28;20037;-76
2022/03/14 08:30:01;;;;;;;3.08;1.95;;;16.30;59.30;;;;;;5057080;28;20048;-76
2022/03/14 08:32:27;;;;;;;5.22;2.70;;;16.30;59.60;;;;;;5064069;28;20039;-76
2022/03/14 08:34:53;;;;;;;4.30;2.78;;;16.30;59.40;;;;;;5077080;28;20044;-74
2022/03/14 08:37:20;;;;;;;4.32;2.88;;;16.30;59.20;;;;;;5055967;28;20037;-76
2022/03/14 08:39:46;;;;;;;4.25;2.83;;;16.30;58.90;;;;;;5036565;28;20124;-75
2022/03/14 08:42:12;;;;;;;3.17;2.42;;;16.30;59.00;;;;;;5072738;28;20450;-74
2022/03/14 08:44:38;;;;;;;5.90;2.97;;;16.30;58.90;;;;;;5073369;28;20091;-74
2022/03/14 08:47:04;;;;;;;3.88;2.85;;;16.30;58.80;;;;;;5058565;28;20407;-76
2022/03/14 08:49:29;;;;;;;4.57;3.35;;;16.30;58.90;;;;;;5069955;28;20059;-75
2022/03/14 08:51:55;;;;;;;4.80;3.03;;;16.30;59.00;;;;;;5040364;28;20044;-76
2022/03/14 08:54:21;;;;;;;5.93;3.35;;;16.30;58.90;;;;;;5056827;28;20041;-78
2022/03/14 08:56:47;;;;;;;4.80;3.97;;;16.30;59.20;;;;;;5072469;28;20139;-74
2022/03/14 08:59:12;;;;;;;6.68;4.43;;;16.20;59.30;;;;;;5055094;28;20059;-77
2022/03/14 09:01:39;;;;;;;6.47;4.47;;;16.20;59.60;;;;;;5072142;28;20484;-75
2022/03/14 09:04:05;;;;;;;18.20;12.20;;;16.20;59.90;;;;;;5074769;28;20075;-75
2022/03/14 09:06:32;;;;;;;16.85;11.30;;;16.00;59.40;;;;;;5074961;28;20455;-77
2022/03/14 09:09:01;;;;;;;8.27;6.18;;;15.70;60.30;;;;;;5074944;28;20048;-73
2022/03/14 09:11:27;;;;;;;11.20;6.95;;;15.70;61.20;;;;;;5057331;28;20535;-74
2022/03/14 09:13:53;;;;;;;21.00;6.93;;;15.80;61.40;;;;;;5071271;28;20159;-74
2022/03/14 09:16:19;;;;;;;12.60;6.75;;;15.90;61.60;;;;;;5075049;28;20093;-76
2022/03/14 09:18:45;;;;;;;14.13;7.20;;;16.00;61.80;;;;;;5054478;28;20080;-74
2022/03/14 09:21:14;;;;;;;12.30;6.35;;;16.00;61.70;;;;;;5074364;28;20052;-76
2022/03/14 09:23:43;;;;;;;8.77;5.28;;;16.00;61.90;;;;;;5074228;28;20076;-73
2022/03/14 09:26:09;;;;;;;7.97;5.63;;;16.10;62.00;;;;;;5074585;28;20056;-76
2022/03/14 09:28:36;;;;;;;9.77;6.40;;;16.10;62.20;;;;;;5075117;28;20086;-76
2022/03/14 09:31:03;;;;;;;9.98;6.30;;;16.20;62.70;;;;;;5073413;28;20382;-74
2022/03/14 09:33:29;;;;;;;10.05;5.60;;;16.20;62.80;;;;;;5073670;28;20175;-75
2022/03/14 09:35:54;;;;;;;16.98;10.48;;;16.20;63.00;;;;;;5071361;28;20135;-73
2022/03/14 09:38:21;;;;;;;16.75;10.27;;;16.30;63.10;;;;;;5074536;28;20137;-73
2022/03/14 09:40:49;;;;;;;15.73;9.65;;;16.30;63.50;;;;;;5018051;28;1121068;-74
2022/03/14 09:43:18;;;;;;;15.25;7.88;;;16.30;63.60;;;;;;5056946;28;20114;-75
2022/03/14 09:45:47;;;;;;;11.70;6.70;;;16.30;63.60;;;;;;5075361;28;20044;-75
2022/03/14 09:48:15;;;;;;;9.90;6.88;;;16.30;63.70;;;;;;5057978;28;20087;-74
2022/03/14 09:50:44;;;;;;;10.55;6.32;;;16.30;63.90;;;;;;5055986;28;20053;-72
2022/03/14 09:53:14;;;;;;;11.18;5.88;;;16.30;63.70;;;;;;5079560;28;20040;-73
2022/03/14 09:55:45;;;;;;;10.85;5.80;;;16.30;63.70;;;;;;5045651;28;20045;-75
2022/03/14 09:58:18;;;;;;;8.45;5.78;;;16.30;63.70;;;;;;5054795;28;20048;-75
2022/03/14 10:00:45;;;;;;;10.05;5.47;;;16.30;63.90;;;;;;5055201;28;20460;-72
2022/03/14 10:03:11;;;;;;;9.60;5.68;;;16.30;63.70;;;;;;5070091;28;20063;-72
2022/03/14 10:05:37;;;;;;;10.52;5.60;;;16.30;63.50;;;;;;5057260;28;20060;-74
2022/03/14 10:08:03;;;;;;;8.95;4.82;;;16.30;63.50;;;;;;5054642;28;20483;-75
2022/03/14 10:10:29;;;;;;;8.63;4.93;;;16.30;63.70;;;;;;5055035;28;20048;-73
2022/03/14 10:12:57;;;;;;;8.70;5.00;;;16.30;63.80;;;;;;5051839;28;20088;-72
2022/03/14 10:15:27;;;;;;;9.88;4.88;;;16.30;63.80;;;;;;5054950;28;20051;-73
2022/03/14 10:17:57;;;;;;;7.68;4.05;;;16.30;63.90;;;;;;5056146;28;20448;-73
2022/03/14 10:20:24;;;;;;;8.55;4.05;;;16.30;63.80;;;;;;5072703;28;20392;-74
2022/03/14 10:22:50;;;;;;;8.30;3.88;;;16.30;63.60;;;;;;5060687;28;20486;-73
2022/03/14 10:25:18;;;;;;;10.82;4.13;;;16.30;63.60;;;;;;5050611;28;20080;-72
2022/03/14 10:27:57;;;;;;;8.80;3.72;;;16.20;63.00;;;;;;5064497;28;20049;-71
2022/03/14 10:30:27;;;;;;;10.13;3.08;;;16.20;63.10;;;;;;5047255;28;20056;-73
2022/03/14 10:33:01;;;;;;;7.50;3.50;;;16.20;63.10;;;;;;5074296;28;20166;-73
2022/03/14 10:35:34;;;;;;;7.75;3.30;;;16.20;63.40;;;;;;5082177;28;20115;-75
2022/03/14 10:38:06;;;;;;;9.10;3.83;;;16.20;63.10;;;;;;5050513;28;20048;-75
2022/03/14 10:40:45;;;;;;;9.05;3.00;;;16.20;62.70;;;;;;5067226;28;20052;-75
2022/03/14 10:43:32;;;;;;;6.70;2.95;;;16.20;62.60;;;;;;5071761;28;20036;-72
2022/03/14 10:45:59;;;;;;;5.78;3.08;;;16.20;62.50;;;;;;5074097;28;20040;-72
2022/03/14 10:48:38;;;;;;;5.40;3.00;;;16.20;62.70;;;;;;5072042;28;20114;-76
2022/03/14 10:51:06;;;;;;;7.35;2.95;;;16.20;63.30;;;;;;5053584;28;20045;-72
2022/03/14 10:53:35;;;;;;;7.13;3.40;;;16.20;62.80;;;;;;5052510;28;20542;-73
2022/03/14 10:56:02;;;;;;;10.93;2.78;;;16.20;62.70;;;;;;5074247;28;20427;-74
2022/03/14 10:58:33;;;;;;;7.45;2.42;;;16.20;62.50;;;;;;5059870;28;20052;-73
2022/03/14 11:01:07;;;;;;;6.22;2.58;;;16.20;62.40;;;;;;5054071;28;20053;-75
2022/03/14 11:03:42;;;;;;;7.05;2.65;;;16.20;62.10;;;;;;5054217;28;20051;-75
2022/03/14 11:06:13;;;;;;;7.32;3.20;;;16.20;62.10;;;;;;5059390;28;20072;-76
2022/03/14 11:08:51;;;;;;;6.43;2.53;;;16.20;61.80;;;;;;5070408;28;20487;-73
2022/03/14 11:11:20;;;;;;;6.45;2.25;;;16.20;61.40;;;;;;5077447;28;20487;-74
2022/03/14 11:13:48;;;;;;;6.85;2.70;;;16.20;61.40;;;;;;5052593;28;20487;-73
2022/03/14 11:16:30;;;;;;;7.50;2.65;;;16.20;61.40;;;;;;5073676;28;20061;-77
2022/03/14 11:18:56;;;;;;;8.70;3.80;;;16.20;59.20;;;;;;5068039;28;20139;-73
2022/03/14 11:21:24;;;;;;;6.78;3.38;;;16.00;59.90;;;;;;5053510;28;20049;-74
2022/03/14 11:23:52;;;;;;;7.60;3.00;;;15.90;60.90;;;;;;5054007;28;20369;-73
2022/03/14 11:26:23;;;;;;;9.23;3.50;;;16.00;61.30;;;;;;5036429;28;20123;-74
2022/03/14 11:28:52;;;;;;;8.35;3.53;;;16.00;61.20;;;;;;5054163;28;20059;-73
2022/03/14 11:31:19;;;;;;;8.65;3.85;;;16.10;61.00;;;;;;5054079;28;20156;-75
2022/03/14 11:33:46;;;;;;;10.10;3.90;;;16.10;60.80;;;;;;5061652;28;20054;-72
2022/03/14 11:36:13;;;;;;;9.32;3.58;;;16.20;60.60;;;;;;5073168;28;20059;-74
2022/03/14 11:38:39;;;;;;;8.75;3.95;;;16.20;60.50;;;;;;5073025;28;20048;-72
2022/03/14 11:41:05;;;;;;;10.90;3.65;;;16.30;60.40;;;;;;5056154;28;20056;-76
2022/03/14 11:43:32;;;;;;;7.97;4.03;;;16.30;60.20;;;;;;5053206;28;20049;-77
2022/03/14 11:46:02;;;;;;;11.15;4.20;;;16.30;60.10;;;;;;5056363;28;20395;-77
2022/03/14 11:48:34;;;;;;;11.25;4.68;;;16.30;59.80;;;;;;5070581;28;20399;-77
2022/03/14 11:51:03;;;;;;;8.20;4.13;;;16.40;59.60;;;;;;5073924;28;20040;-76
2022/03/14 11:53:34;;;;;;;10.93;4.50;;;16.40;59.50;;;;;;5056079;28;20040;-74
2022/03/14 11:56:08;;;;;;;10.45;4.45;;;16.40;59.30;;;;;;5052647;28;20041;-74
2022/03/14 11:58:55;;;;;;;9.18;3.28;;;16.40;59.30;;;;;;5053632;28;20107;-73
2022/03/14 12:01:23;;;;;;;9.00;4.00;;;16.40;59.30;;;;;;5036090;28;20439;-74
2022/03/14 12:03:55;;;;;;;7.43;3.88;;;16.40;59.20;;;;;;5068024;28;20127;-73
2022/03/14 12:06:46;;;;;;;13.73;4.32;;;16.40;59.20;;;;;;5075528;28;20071;-72
2022/03/14 12:09:24;;;;;;;8.43;3.92;;;16.50;58.80;;;;;;5076103;28;20082;-78
2022/03/14 12:11:57;;;;;;;10.00;4.18;;;16.50;58.70;;;;;;5076319;28;20051;-75
2022/03/14 12:14:47;;;;;;;12.25;4.88;;;16.50;58.70;;;;;;5059618;28;20044;-75
2022/03/14 12:17:13;;;;;;;10.70;4.72;;;16.50;58.40;;;;;;5059771;28;20507;-71
2022/03/14 12:20:05;;;;;;;9.43;4.47;;;16.50;58.30;;;;;;5059916;28;20084;-74
2022/03/14 12:22:39;;;;;;;11.30;4.47;;;16.50;57.70;;;;;;5057405;28;20044;-73
2022/03/14 12:25:07;;;;;;;8.95;4.20;;;16.50;57.80;;;;;;5077616;28;20045;-72
2022/03/14 12:27:42;;;;;;;13.45;4.63;;;16.50;57.80;;;;;;5067566;28;20363;-73
2022/03/14 12:30:18;;;;;;;11.73;4.40;;;16.50;57.80;;;;;;5066746;28;20055;-76
2022/03/14 12:32:52;;;;;;;14.18;4.85;;;16.40;58.10;;;;;;5076948;28;20049;-71
2022/03/14 12:35:22;;;;;;;11.45;4.00;;;16.30;58.30;;;;;;5075721;28;20128;-73
2022/03/14 12:37:58;;;;;;;12.13;4.13;;;16.20;58.90;;;;;;5076934;28;20052;-72
2022/03/14 12:40:27;;;;;;;13.57;3.67;;;16.20;58.90;;;;;;5059077;28;20094;-73
2022/03/14 12:42:54;;;;;;;8.98;3.90;;;16.30;58.80;;;;;;5058957;28;20087;-73
2022/03/14 12:45:30;;;;;;;13.02;4.32;;;16.30;58.80;;;;;;5076726;28;20394;-73
2022/03/14 12:47:58;;;;;;;9.57;3.42;;;16.30;58.80;;;;;;5076635;28;20041;-73